sensor_id;sensor_type;location;lat;lon;timestamp;temperature;humidity
21895;DHT22;11112;51.270;7.224;2023-07-30T00:00:09;20.10;99.90
21895;DHT22;11112;51.270;7.224;2023-07-30T00:02:36;20.10;99.90
21895;DHT22;11112;51.270;7.224;2023-07-30T00:05:04;20.10;99.90
21895;DHT22;11112;51.270;7.224;2023-07-30T00:07:34;20.10;99.90
21895;DHT22;11112;51.270;7.224;2023-07-30T00:10:01;20.10;99.90
21895;DHT22;11112;51.270;7.224;2023-07-30T00:12:28;20.10;99.90
21895;DHT22;11112;51.270;7.224;2023-07-30T00:14:55;20.10;99.90
21895;DHT22;11112;51.270;7.224;2023-07-30T00:17:24;20.00;99.90
21895;DHT22;11112;51.270;7.224;2023-07-30T00:19:51;20.00;99.90
21895;DHT22;11112;51.270;7.224;2023-07-30T00:22:18;20.10;99.90
21895;DHT22;11112;51.270;7.224;2023-07-30T00:24:45;20.00;99.90
21895;DHT22;11112;51.270;7.224;2023-07-30T00:27:12;20.00;99.90
21895;DHT22;11112;51.270;7.224;2023-07-30T00:29:43;20.00;99.90
21895;DHT22;11112;51.270;7.224;2023-07-30T00:32:10;20.00;99.90
21895;DHT22;11112;51.270;7.224;2023-07-30T00:34:42;20.00;99.90
21895;DHT22;11112;51.270;7.224;2023-07-30T00:37:12;20.00;99.90
21895;DHT22;11112;51.270;7.224;2023-07-30T00:39:39;20.00;99.90
21895;DHT22;11112;51.270;7.224;2023-07-30T00:42:06;20.00;99.90
21895;DHT22;11112;51.270;7.224;2023-07-30T00:44:35;20.00;99.90
21895;DHT22;11112;51.270;7.224;2023-07-30T00:47:04;20.00;99.90
21895;DHT22;11112;51.270;7.224;2023-07-30T00:49:36;19.90;99.90
21895;DHT22;11112;51.270;7.224;2023-07-30T00:52:07;19.90;99.90
21895;DHT22;11112;51.270;7.224;2023-07-30T00:54:42;19.90;99.90
21895;DHT22;11112;51.270;7.224;2023-07-30T00:57:17;19.90;99.90
21895;DHT22;11112;51.270;7.224;2023-07-30T00:59:48;19.90;99.90
21895;DHT22;11112;51.270;7.224;2023-07-30T01:02:16;19.90;99.90
21895;DHT22;11112;51.270;7.224;2023-07-30T01:04:55;19.90;99.90
21895;DHT22;11112;51.270;7.224;2023-07-30T01:07:27;19.80;99.90
21895;DHT22;11112;51.270;7.224;2023-07-30T01:09:56;19.80;99.90
21895;DHT22;11112;51.270;7.224;2023-07-30T01:12:24;19.80;99.90
21895;DHT22;11112;51.270;7.224;2023-07-30T01:14:59;19.80;99.90
21895;DHT22;11112;51.270;7.224;2023-07-30T01:17:35;19.80;99.90
21895;DHT22;11112;51.270;7.224;2023-07-30T01:20:03;19.70;99.90
21895;DHT22;11112;51.270;7.224;2023-07-30T01:22:32;19.80;99.90
21895;DHT22;11112;51.270;7.224;2023-07-30T01:24:59;19.70;99.90
21895;DHT22;11112;51.270;7.224;2023-07-30T01:27:28;19.70;99.90
21895;DHT22;11112;51.270;7.224;2023-07-30T01:30:03;19.70;99.90
21895;DHT22;11112;51.270;7.224;2023-07-30T01:32:33;19.70;99.90
21895;DHT22;11112;51.270;7.224;2023-07-30T01:35:02;19.70;99.90
21895;DHT22;11112;51.270;7.224;2023-07-30T01:37:32;19.70;99.90
21895;DHT22;11112;51.270;7.224;2023-07-30T01:40:00;19.70;99.90
21895;DHT22;11112;51.270;7.224;2023-07-30T01:42:29;19.60;99.90
21895;DHT22;11112;51.270;7.224;2023-07-30T01:44:56;19.60;99.90
21895;DHT22;11112;51.270;7.224;2023-07-30T01:47:23;19.60;99.90
21895;DHT22;11112;51.270;7.224;2023-07-30T01:49:50;19.60;99.90
21895;DHT22;11112;51.270;7.224;2023-07-30T01:52:17;19.60;99.90
21895;DHT22;11112;51.270;7.224;2023-07-30T01:54:45;19.60;99.90
21895;DHT22;11112;51.270;7.224;2023-07-30T01:57:12;19.60;99.90
21895;DHT22;11112;51.270;7.224;2023-07-30T01:59:39;19.60;99.90
21895;DHT22;11112;51.270;7.224;2023-07-30T02:02:06;19.60;99.90
21895;DHT22;11112;51.270;7.224;2023-07-30T02:04:33;19.60;99.90
21895;DHT22;11112;51.270;7.224;2023-07-30T02:07:00;19.60;99.90
21895;DHT22;11112;51.270;7.224;2023-07-30T02:09:28;19.60;99.90
21895;DHT22;11112;51.270;7.224;2023-07-30T02:11:56;19.60;99.90
21895;DHT22;11112;51.270;7.224;2023-07-30T02:14:23;19.60;99.90
21895;DHT22;11112;51.270;7.224;2023-07-30T02:16:50;19.60;99.90
21895;DHT22;11112;51.270;7.224;2023-07-30T02:19:17;19.60;99.90
21895;DHT22;11112;51.270;7.224;2023-07-30T02:24:24;19.60;99.90
21895;DHT22;11112;51.270;7.224;2023-07-30T02:26:51;19.60;99.90
21895;DHT22;11112;51.270;7.224;2023-07-30T02:29:19;19.60;99.90
21895;DHT22;11112;51.270;7.224;2023-07-30T02:31:46;19.60;99.90
21895;DHT22;11112;51.270;7.224;2023-07-30T02:34:13;19.60;99.90
21895;DHT22;11112;51.270;7.224;2023-07-30T02:36:40;19.60;99.90
21895;DHT22;11112;51.270;7.224;2023-07-30T02:39:07;19.60;99.90
21895;DHT22;11112;51.270;7.224;2023-07-30T02:41:34;19.60;99.90
21895;DHT22;11112;51.270;7.224;2023-07-30T02:44:01;19.60;99.90
21895;DHT22;11112;51.270;7.224;2023-07-30T02:46:30;19.50;99.90
21895;DHT22;11112;51.270;7.224;2023-07-30T02:48:57;19.60;99.90
21895;DHT22;11112;51.270;7.224;2023-07-30T02:51:24;19.60;99.90
21895;DHT22;11112;51.270;7.224;2023-07-30T02:53:52;19.50;99.90
21895;DHT22;11112;51.270;7.224;2023-07-30T02:56:19;19.50;99.90
21895;DHT22;11112;51.270;7.224;2023-07-30T02:58:46;19.50;99.90
21895;DHT22;11112;51.270;7.224;2023-07-30T03:01:13;19.50;99.90
21895;DHT22;11112;51.270;7.224;2023-07-30T03:03:42;19.50;99.90
21895;DHT22;11112;51.270;7.224;2023-07-30T03:06:09;19.50;99.90
21895;DHT22;11112;51.270;7.224;2023-07-30T03:08:36;19.50;99.90
21895;DHT22;11112;51.270;7.224;2023-07-30T03:11:04;19.50;99.90
21895;DHT22;11112;51.270;7.224;2023-07-30T03:13:31;19.50;99.90
21895;DHT22;11112;51.270;7.224;2023-07-30T03:15:58;19.40;99.90
21895;DHT22;11112;51.270;7.224;2023-07-30T03:18:25;19.40;99.90
21895;DHT22;11112;51.270;7.224;2023-07-30T03:20:58;19.50;99.90
21895;DHT22;11112;51.270;7.224;2023-07-30T03:23:30;19.40;99.90
21895;DHT22;11112;51.270;7.224;2023-07-30T03:26:00;19.40;99.90
21895;DHT22;11112;51.270;7.224;2023-07-30T03:28:27;19.40;99.90
21895;DHT22;11112;51.270;7.224;2023-07-30T03:30:54;19.40;99.90
21895;DHT22;11112;51.270;7.224;2023-07-30T03:33:21;19.40;99.90
21895;DHT22;11112;51.270;7.224;2023-07-30T03:35:48;19.40;99.90
21895;DHT22;11112;51.270;7.224;2023-07-30T03:38:17;19.40;99.90
21895;DHT22;11112;51.270;7.224;2023-07-30T03:40:44;19.30;99.90
21895;DHT22;11112;51.270;7.224;2023-07-30T03:43:11;19.30;99.90
21895;DHT22;11112;51.270;7.224;2023-07-30T03:45:38;19.30;99.90
21895;DHT22;11112;51.270;7.224;2023-07-30T03:48:05;19.30;99.90
21895;DHT22;11112;51.270;7.224;2023-07-30T03:50:32;19.30;99.90
21895;DHT22;11112;51.270;7.224;2023-07-30T03:52:59;19.30;99.90
21895;DHT22;11112;51.270;7.224;2023-07-30T03:55:27;19.30;99.90
21895;DHT22;11112;51.270;7.224;2023-07-30T03:57:54;19.30;99.90
21895;DHT22;11112;51.270;7.224;2023-07-30T04:00:21;19.30;99.90
21895;DHT22;11112;51.270;7.224;2023-07-30T04:02:48;19.30;99.90
21895;DHT22;11112;51.270;7.224;2023-07-30T04:05:15;19.30;99.90
21895;DHT22;11112;51.270;7.224;2023-07-30T04:07:42;19.30;99.90
21895;DHT22;11112;51.270;7.224;2023-07-30T04:10:09;19.20;99.90
21895;DHT22;11112;51.270;7.224;2023-07-30T04:12:38;19.20;99.90
21895;DHT22;11112;51.270;7.224;2023-07-30T04:15:06;19.30;99.90
21895;DHT22;11112;51.270;7.224;2023-07-30T04:17:34;19.20;99.90
21895;DHT22;11112;51.270;7.224;2023-07-30T04:20:03;19.20;99.90
21895;DHT22;11112;51.270;7.224;2023-07-30T04:22:31;19.20;99.90
21895;DHT22;11112;51.270;7.224;2023-07-30T04:24:58;19.20;99.90
21895;DHT22;11112;51.270;7.224;2023-07-30T04:27:25;19.20;99.90
21895;DHT22;11112;51.270;7.224;2023-07-30T04:29:53;19.20;99.90
21895;DHT22;11112;51.270;7.224;2023-07-30T04:32:20;19.20;99.90
21895;DHT22;11112;51.270;7.224;2023-07-30T04:34:47;19.20;99.90
21895;DHT22;11112;51.270;7.224;2023-07-30T04:37:14;19.20;99.90
21895;DHT22;11112;51.270;7.224;2023-07-30T04:39:41;19.20;99.90
21895;DHT22;11112;51.270;7.224;2023-07-30T04:42:08;19.20;99.90
21895;DHT22;11112;51.270;7.224;2023-07-30T04:44:35;19.10;99.90
21895;DHT22;11112;51.270;7.224;2023-07-30T04:47:04;19.10;99.90
21895;DHT22;11112;51.270;7.224;2023-07-30T04:49:32;19.10;99.90
21895;DHT22;11112;51.270;7.224;2023-07-30T04:51:59;19.10;99.90
21895;DHT22;11112;51.270;7.224;2023-07-30T04:54:26;19.10;99.90
21895;DHT22;11112;51.270;7.224;2023-07-30T04:56:53;19.20;99.90
21895;DHT22;11112;51.270;7.224;2023-07-30T04:59:20;19.10;99.90
21895;DHT22;11112;51.270;7.224;2023-07-30T05:01:47;19.20;99.90
21895;DHT22;11112;51.270;7.224;2023-07-30T05:04:16;19.10;99.90
21895;DHT22;11112;51.270;7.224;2023-07-30T05:06:43;19.20;99.90
21895;DHT22;11112;51.270;7.224;2023-07-30T05:09:10;19.20;99.90
21895;DHT22;11112;51.270;7.224;2023-07-30T05:11:38;19.20;99.90
21895;DHT22;11112;51.270;7.224;2023-07-30T05:14:05;19.20;99.90
21895;DHT22;11112;51.270;7.224;2023-07-30T05:16:32;19.20;99.90
21895;DHT22;11112;51.270;7.224;2023-07-30T05:18:59;19.20;99.90
21895;DHT22;11112;51.270;7.224;2023-07-30T05:21:27;19.20;99.90
21895;DHT22;11112;51.270;7.224;2023-07-30T05:23:54;19.10;99.90
21895;DHT22;11112;51.270;7.224;2023-07-30T05:26:21;19.10;99.90
21895;DHT22;11112;51.270;7.224;2023-07-30T05:28:48;19.10;99.90
21895;DHT22;11112;51.270;7.224;2023-07-30T05:31:15;19.10;99.90
21895;DHT22;11112;51.270;7.224;2023-07-30T05:33:42;19.10;99.90
21895;DHT22;11112;51.270;7.224;2023-07-30T05:36:09;19.10;99.90
21895;DHT22;11112;51.270;7.224;2023-07-30T05:38:38;19.10;99.90
21895;DHT22;11112;51.270;7.224;2023-07-30T05:41:05;19.10;99.90
21895;DHT22;11112;51.270;7.224;2023-07-30T05:43:32;19.00;99.90
21895;DHT22;11112;51.270;7.224;2023-07-30T05:45:59;18.90;99.90
21895;DHT22;11112;51.270;7.224;2023-07-30T05:48:26;18.90;99.90
21895;DHT22;11112;51.270;7.224;2023-07-30T05:50:53;18.90;99.90
21895;DHT22;11112;51.270;7.224;2023-07-30T05:53:20;18.90;99.90
21895;DHT22;11112;51.270;7.224;2023-07-30T05:55:48;18.90;99.90
21895;DHT22;11112;51.270;7.224;2023-07-30T05:58:16;18.90;99.90
21895;DHT22;11112;51.270;7.224;2023-07-30T06:00:43;18.90;99.90
21895;DHT22;11112;51.270;7.224;2023-07-30T06:03:10;18.90;99.90
21895;DHT22;11112;51.270;7.224;2023-07-30T06:05:39;18.90;99.90
21895;DHT22;11112;51.270;7.224;2023-07-30T06:08:07;18.80;99.90
21895;DHT22;11112;51.270;7.224;2023-07-30T06:10:35;18.90;99.90
21895;DHT22;11112;51.270;7.224;2023-07-30T06:13:04;18.90;99.90
21895;DHT22;11112;51.270;7.224;2023-07-30T06:15:32;18.80;99.90
21895;DHT22;11112;51.270;7.224;2023-07-30T06:18:00;18.80;99.90
21895;DHT22;11112;51.270;7.224;2023-07-30T06:20:27;18.80;99.90
21895;DHT22;11112;51.270;7.224;2023-07-30T06:22:55;18.80;99.90
21895;DHT22;11112;51.270;7.224;2023-07-30T06:25:22;18.80;99.90
21895;DHT22;11112;51.270;7.224;2023-07-30T06:27:49;18.80;99.90
21895;DHT22;11112;51.270;7.224;2023-07-30T06:30:18;18.80;99.90
21895;DHT22;11112;51.270;7.224;2023-07-30T06:32:45;18.80;99.90
21895;DHT22;11112;51.270;7.224;2023-07-30T06:35:12;18.80;99.90
21895;DHT22;11112;51.270;7.224;2023-07-30T06:37:39;18.80;99.90
21895;DHT22;11112;51.270;7.224;2023-07-30T06:40:07;18.90;99.90
21895;DHT22;11112;51.270;7.224;2023-07-30T06:42:34;18.80;99.90
21895;DHT22;11112;51.270;7.224;2023-07-30T06:45:01;18.80;99.90
21895;DHT22;11112;51.270;7.224;2023-07-30T06:47:30;18.80;99.90
21895;DHT22;11112;51.270;7.224;2023-07-30T06:49:57;18.80;99.90
21895;DHT22;11112;51.270;7.224;2023-07-30T06:52:24;18.80;99.90
21895;DHT22;11112;51.270;7.224;2023-07-30T06:54:51;18.80;99.90
21895;DHT22;11112;51.270;7.224;2023-07-30T06:57:18;18.80;99.90
21895;DHT22;11112;51.270;7.224;2023-07-30T06:59:45;18.80;99.90
21895;DHT22;11112;51.270;7.224;2023-07-30T07:02:12;18.70;99.90
21895;DHT22;11112;51.270;7.224;2023-07-30T07:04:41;18.70;99.90
21895;DHT22;11112;51.270;7.224;2023-07-30T07:07:08;18.80;99.90
21895;DHT22;11112;51.270;7.224;2023-07-30T07:09:35;18.80;99.90
21895;DHT22;11112;51.270;7.224;2023-07-30T07:12:02;18.80;99.90
21895;DHT22;11112;51.270;7.224;2023-07-30T07:14:30;18.80;99.90
21895;DHT22;11112;51.270;7.224;2023-07-30T07:16:57;18.80;99.90
21895;DHT22;11112;51.270;7.224;2023-07-30T07:19:24;18.80;99.90
21895;DHT22;11112;51.270;7.224;2023-07-30T07:21:52;18.80;99.90
21895;DHT22;11112;51.270;7.224;2023-07-30T07:24:19;18.80;99.90
21895;DHT22;11112;51.270;7.224;2023-07-30T07:26:46;18.80;99.90
21895;DHT22;11112;51.270;7.224;2023-07-30T07:29:14;18.80;99.90
21895;DHT22;11112;51.270;7.224;2023-07-30T07:31:41;18.80;99.90
21895;DHT22;11112;51.270;7.224;2023-07-30T07:34:08;18.80;99.90
21895;DHT22;11112;51.270;7.224;2023-07-30T07:36:36;18.70;99.90
21895;DHT22;11112;51.270;7.224;2023-07-30T07:39:05;18.70;99.90
21895;DHT22;11112;51.270;7.224;2023-07-30T07:41:32;18.80;99.90
21895;DHT22;11112;51.270;7.224;2023-07-30T07:43:59;18.80;99.90
21895;DHT22;11112;51.270;7.224;2023-07-30T07:46:26;18.80;99.90
21895;DHT22;11112;51.270;7.224;2023-07-30T07:48:54;18.80;99.90
21895;DHT22;11112;51.270;7.224;2023-07-30T07:51:21;18.80;99.90
21895;DHT22;11112;51.270;7.224;2023-07-30T07:53:48;18.80;99.90
21895;DHT22;11112;51.270;7.224;2023-07-30T07:56:16;18.80;99.90
21895;DHT22;11112;51.270;7.224;2023-07-30T07:58:43;18.80;99.90
21895;DHT22;11112;51.270;7.224;2023-07-30T08:01:10;18.80;99.90
21895;DHT22;11112;51.270;7.224;2023-07-30T08:03:37;18.80;99.90
21895;DHT22;11112;51.270;7.224;2023-07-30T08:06:05;18.80;99.90
21895;DHT22;11112;51.270;7.224;2023-07-30T08:08:32;18.80;99.90
21895;DHT22;11112;51.270;7.224;2023-07-30T08:11:04;18.80;99.90
21895;DHT22;11112;51.270;7.224;2023-07-30T08:13:34;18.80;99.90
21895;DHT22;11112;51.270;7.224;2023-07-30T08:16:02;18.80;99.90
21895;DHT22;11112;51.270;7.224;2023-07-30T08:18:29;18.80;99.90
21895;DHT22;11112;51.270;7.224;2023-07-30T08:20:56;18.80;99.90
21895;DHT22;11112;51.270;7.224;2023-07-30T08:23:23;18.80;99.90
21895;DHT22;11112;51.270;7.224;2023-07-30T08:25:50;18.80;99.90
21895;DHT22;11112;51.270;7.224;2023-07-30T08:28:17;18.90;99.90
21895;DHT22;11112;51.270;7.224;2023-07-30T08:30:46;18.90;99.90
21895;DHT22;11112;51.270;7.224;2023-07-30T08:33:13;18.90;99.90
21895;DHT22;11112;51.270;7.224;2023-07-30T08:35:40;18.90;99.90
21895;DHT22;11112;51.270;7.224;2023-07-30T08:38:08;18.90;99.90
21895;DHT22;11112;51.270;7.224;2023-07-30T08:40:35;18.90;99.90
21895;DHT22;11112;51.270;7.224;2023-07-30T08:43:03;18.90;99.90
21895;DHT22;11112;51.270;7.224;2023-07-30T08:45:30;19.00;99.90
21895;DHT22;11112;51.270;7.224;2023-07-30T08:47:59;18.90;99.90
21895;DHT22;11112;51.270;7.224;2023-07-30T08:50:26;18.90;99.90
21895;DHT22;11112;51.270;7.224;2023-07-30T08:52:55;19.00;99.90
21895;DHT22;11112;51.270;7.224;2023-07-30T08:55:23;19.00;99.90
21895;DHT22;11112;51.270;7.224;2023-07-30T08:57:51;19.10;99.90
21895;DHT22;11112;51.270;7.224;2023-07-30T09:00:19;19.10;99.90
21895;DHT22;11112;51.270;7.224;2023-07-30T09:02:54;19.00;99.90
21895;DHT22;11112;51.270;7.224;2023-07-30T09:05:23;19.00;99.90
21895;DHT22;11112;51.270;7.224;2023-07-30T09:07:51;19.00;99.90
21895;DHT22;11112;51.270;7.224;2023-07-30T09:10:17;19.00;99.90
21895;DHT22;11112;51.270;7.224;2023-07-30T09:12:45;19.10;99.90
21895;DHT22;11112;51.270;7.224;2023-07-30T09:15:12;19.10;99.90
21895;DHT22;11112;51.270;7.224;2023-07-30T09:17:39;19.10;99.90
21895;DHT22;11112;51.270;7.224;2023-07-30T09:20:06;19.20;99.90
21895;DHT22;11112;51.270;7.224;2023-07-30T09:22:35;19.20;99.90
21895;DHT22;11112;51.270;7.224;2023-07-30T09:25:06;19.10;99.90
21895;DHT22;11112;51.270;7.224;2023-07-30T09:27:33;19.10;99.90
21895;DHT22;11112;51.270;7.224;2023-07-30T09:30:02;19.20;99.90
21895;DHT22;11112;51.270;7.224;2023-07-30T09:32:33;19.20;99.90
21895;DHT22;11112;51.270;7.224;2023-07-30T09:35:05;19.20;99.90
21895;DHT22;11112;51.270;7.224;2023-07-30T09:37:37;19.20;99.90
21895;DHT22;11112;51.270;7.224;2023-07-30T09:40:06;19.30;99.90
21895;DHT22;11112;51.270;7.224;2023-07-30T09:42:34;19.30;99.90
21895;DHT22;11112;51.270;7.224;2023-07-30T09:45:05;19.40;99.90
21895;DHT22;11112;51.270;7.224;2023-07-30T09:47:33;19.40;99.90
21895;DHT22;11112;51.270;7.224;2023-07-30T09:50:03;19.50;99.90
21895;DHT22;11112;51.270;7.224;2023-07-30T09:52:31;19.50;99.90
21895;DHT22;11112;51.270;7.224;2023-07-30T09:55:00;19.60;99.90
21895;DHT22;11112;51.270;7.224;2023-07-30T09:57:28;19.60;99.90
21895;DHT22;11112;51.270;7.224;2023-07-30T09:59:55;19.60;99.90
21895;DHT22;11112;51.270;7.224;2023-07-30T10:02:24;19.70;99.90
21895;DHT22;11112;51.270;7.224;2023-07-30T10:04:56;19.70;99.40
21895;DHT22;11112;51.270;7.224;2023-07-30T10:07:28;19.70;98.80
21895;DHT22;11112;51.270;7.224;2023-07-30T10:10:00;19.70;98.90
21895;DHT22;11112;51.270;7.224;2023-07-30T10:12:31;19.80;98.30
21895;DHT22;11112;51.270;7.224;2023-07-30T10:15:00;19.80;98.30
21895;DHT22;11112;51.270;7.224;2023-07-30T10:17:27;19.80;98.40
21895;DHT22;11112;51.270;7.224;2023-07-30T10:19:54;19.80;98.10
21895;DHT22;11112;51.270;7.224;2023-07-30T10:22:23;19.80;98.20
21895;DHT22;11112;51.270;7.224;2023-07-30T10:24:58;19.90;98.30
21895;DHT22;11112;51.270;7.224;2023-07-30T10:27:35;19.90;98.10
21895;DHT22;11112;51.270;7.224;2023-07-30T10:30:10;19.90;97.60
21895;DHT22;11112;51.270;7.224;2023-07-30T10:32:39;19.90;97.70
21895;DHT22;11112;51.270;7.224;2023-07-30T10:35:07;19.90;97.50
21895;DHT22;11112;51.270;7.224;2023-07-30T10:37:34;19.90;97.80
21895;DHT22;11112;51.270;7.224;2023-07-30T10:40:15;20.00;97.40
21895;DHT22;11112;51.270;7.224;2023-07-30T10:42:44;20.00;97.30
21895;DHT22;11112;51.270;7.224;2023-07-30T10:45:11;20.00;97.50
21895;DHT22;11112;51.270;7.224;2023-07-30T10:47:41;20.10;97.40
21895;DHT22;11112;51.270;7.224;2023-07-30T10:50:09;20.10;97.40
21895;DHT22;11112;51.270;7.224;2023-07-30T10:52:38;20.10;97.80
21895;DHT22;11112;51.270;7.224;2023-07-30T10:55:06;20.20;97.60
21895;DHT22;11112;51.270;7.224;2023-07-30T10:57:35;20.20;96.90
21895;DHT22;11112;51.270;7.224;2023-07-30T11:00:06;20.20;97.00
21895;DHT22;11112;51.270;7.224;2023-07-30T11:02:33;20.20;97.10
21895;DHT22;11112;51.270;7.224;2023-07-30T11:05:11;20.20;96.80
21895;DHT22;11112;51.270;7.224;2023-07-30T11:07:39;20.20;96.40
21895;DHT22;11112;51.270;7.224;2023-07-30T11:10:06;20.20;96.30
21895;DHT22;11112;51.270;7.224;2023-07-30T11:12:35;20.20;96.60
21895;DHT22;11112;51.270;7.224;2023-07-30T11:15:03;20.20;96.70
21895;DHT22;11112;51.270;7.224;2023-07-30T11:17:30;20.20;96.60
21895;DHT22;11112;51.270;7.224;2023-07-30T11:19:58;20.20;96.70
21895;DHT22;11112;51.270;7.224;2023-07-30T11:22:31;20.20;96.80
21895;DHT22;11112;51.270;7.224;2023-07-30T11:24:59;20.20;96.80
21895;DHT22;11112;51.270;7.224;2023-07-30T11:27:46;20.30;96.40
21895;DHT22;11112;51.270;7.224;2023-07-30T11:30:13;20.20;96.30
21895;DHT22;11112;51.270;7.224;2023-07-30T11:32:41;20.30;96.70
21895;DHT22;11112;51.270;7.224;2023-07-30T11:35:11;20.30;96.30
21895;DHT22;11112;51.270;7.224;2023-07-30T11:37:39;20.30;96.40
21895;DHT22;11112;51.270;7.224;2023-07-30T11:40:08;20.20;96.10
21895;DHT22;11112;51.270;7.224;2023-07-30T11:42:36;20.20;96.30
21895;DHT22;11112;51.270;7.224;2023-07-30T11:45:18;20.30;96.60
21895;DHT22;11112;51.270;7.224;2023-07-30T11:47:46;20.30;96.20
21895;DHT22;11112;51.270;7.224;2023-07-30T11:50:14;20.30;96.40
21895;DHT22;11112;51.270;7.224;2023-07-30T11:52:54;20.30;96.30
21895;DHT22;11112;51.270;7.224;2023-07-30T11:55:22;20.30;96.40
21895;DHT22;11112;51.270;7.224;2023-07-30T11:57:50;20.30;96.20
21895;DHT22;11112;51.270;7.224;2023-07-30T12:00:21;20.30;95.80
21895;DHT22;11112;51.270;7.224;2023-07-30T12:02:48;20.30;95.80
21895;DHT22;11112;51.270;7.224;2023-07-30T12:05:16;20.30;95.90
21895;DHT22;11112;51.270;7.224;2023-07-30T12:07:48;20.30;95.50
21895;DHT22;11112;51.270;7.224;2023-07-30T12:10:15;20.30;95.30
21895;DHT22;11112;51.270;7.224;2023-07-30T12:12:45;20.20;95.20
21895;DHT22;11112;51.270;7.224;2023-07-30T12:15:13;20.30;95.30
21895;DHT22;11112;51.270;7.224;2023-07-30T12:17:41;20.30;95.30
21895;DHT22;11112;51.270;7.224;2023-07-30T12:20:10;20.40;95.40
21895;DHT22;11112;51.270;7.224;2023-07-30T12:22:38;20.40;95.40
21895;DHT22;11112;51.270;7.224;2023-07-30T12:25:05;20.40;95.20
21895;DHT22;11112;51.270;7.224;2023-07-30T12:27:34;20.40;95.40
21895;DHT22;11112;51.270;7.224;2023-07-30T12:30:01;20.40;95.70
21895;DHT22;11112;51.270;7.224;2023-07-30T12:32:28;20.40;95.70
21895;DHT22;11112;51.270;7.224;2023-07-30T12:34:57;20.40;95.50
21895;DHT22;11112;51.270;7.224;2023-07-30T12:37:24;20.40;95.70
21895;DHT22;11112;51.270;7.224;2023-07-30T12:39:51;20.40;95.20
21895;DHT22;11112;51.270;7.224;2023-07-30T12:42:18;20.40;95.30
21895;DHT22;11112;51.270;7.224;2023-07-30T12:44:45;20.40;95.40
21895;DHT22;11112;51.270;7.224;2023-07-30T12:47:12;20.40;95.40
21895;DHT22;11112;51.270;7.224;2023-07-30T12:49:39;20.40;95.50
21895;DHT22;11112;51.270;7.224;2023-07-30T12:52:07;20.50;95.50
21895;DHT22;11112;51.270;7.224;2023-07-30T12:54:34;20.40;95.40
21895;DHT22;11112;51.270;7.224;2023-07-30T12:57:01;20.40;95.20
21895;DHT22;11112;51.270;7.224;2023-07-30T12:59:29;20.40;94.60
21895;DHT22;11112;51.270;7.224;2023-07-30T13:01:56;20.40;95.20
21895;DHT22;11112;51.270;7.224;2023-07-30T13:04:24;20.40;94.40
21895;DHT22;11112;51.270;7.224;2023-07-30T13:06:53;20.40;94.20
21895;DHT22;11112;51.270;7.224;2023-07-30T13:09:21;20.40;94.30
21895;DHT22;11112;51.270;7.224;2023-07-30T13:11:48;20.40;94.10
21895;DHT22;11112;51.270;7.224;2023-07-30T13:14:15;20.40;94.00
21895;DHT22;11112;51.270;7.224;2023-07-30T13:16:43;20.50;93.30
21895;DHT22;11112;51.270;7.224;2023-07-30T13:19:10;20.50;93.50
21895;DHT22;11112;51.270;7.224;2023-07-30T13:21:37;20.50;93.10
21895;DHT22;11112;51.270;7.224;2023-07-30T13:24:04;20.50;93.50
21895;DHT22;11112;51.270;7.224;2023-07-30T13:26:34;20.50;93.50
21895;DHT22;11112;51.270;7.224;2023-07-30T13:29:01;20.50;93.50
21895;DHT22;11112;51.270;7.224;2023-07-30T13:31:29;20.50;92.80
21895;DHT22;11112;51.270;7.224;2023-07-30T13:33:56;20.50;92.90
21895;DHT22;11112;51.270;7.224;2023-07-30T13:36:23;20.50;93.10
21895;DHT22;11112;51.270;7.224;2023-07-30T13:38:50;20.50;92.90
21895;DHT22;11112;51.270;7.224;2023-07-30T13:41:17;20.60;92.60
21895;DHT22;11112;51.270;7.224;2023-07-30T13:43:45;20.50;92.50
21895;DHT22;11112;51.270;7.224;2023-07-30T13:46:12;20.50;92.10
21895;DHT22;11112;51.270;7.224;2023-07-30T13:48:39;20.60;91.80
21895;DHT22;11112;51.270;7.224;2023-07-30T13:51:06;20.60;91.90
21895;DHT22;11112;51.270;7.224;2023-07-30T13:53:33;20.60;91.70
21895;DHT22;11112;51.270;7.224;2023-07-30T13:56:04;20.70;91.80
21895;DHT22;11112;51.270;7.224;2023-07-30T13:58:31;20.60;92.20
21895;DHT22;11112;51.270;7.224;2023-07-30T14:00:59;20.70;92.60
21895;DHT22;11112;51.270;7.224;2023-07-30T14:03:26;20.60;92.80
21895;DHT22;11112;51.270;7.224;2023-07-30T14:05:53;20.60;92.80
21895;DHT22;11112;51.270;7.224;2023-07-30T14:08:20;20.70;92.40
21895;DHT22;11112;51.270;7.224;2023-07-30T14:10:47;20.70;92.50
21895;DHT22;11112;51.270;7.224;2023-07-30T14:13:14;20.70;92.60
21895;DHT22;11112;51.270;7.224;2023-07-30T14:15:41;20.70;92.20
21895;DHT22;11112;51.270;7.224;2023-07-30T14:18:10;20.70;92.50
21895;DHT22;11112;51.270;7.224;2023-07-30T14:20:37;20.70;92.70
21895;DHT22;11112;51.270;7.224;2023-07-30T14:23:04;20.70;93.00
21895;DHT22;11112;51.270;7.224;2023-07-30T14:25:32;20.70;93.10
21895;DHT22;11112;51.270;7.224;2023-07-30T14:27:59;20.80;93.10
21895;DHT22;11112;51.270;7.224;2023-07-30T14:30:26;20.80;93.10
21895;DHT22;11112;51.270;7.224;2023-07-30T14:32:53;20.80;93.10
21895;DHT22;11112;51.270;7.224;2023-07-30T14:35:21;20.90;93.00
21895;DHT22;11112;51.270;7.224;2023-07-30T14:37:48;20.80;93.00
21895;DHT22;11112;51.270;7.224;2023-07-30T14:40:16;20.80;93.10
21895;DHT22;11112;51.270;7.224;2023-07-30T14:42:43;20.90;93.30
21895;DHT22;11112;51.270;7.224;2023-07-30T14:45:10;20.80;93.20
21895;DHT22;11112;51.270;7.224;2023-07-30T14:47:37;20.70;93.30
21895;DHT22;11112;51.270;7.224;2023-07-30T14:50:06;20.70;93.40
21895;DHT22;11112;51.270;7.224;2023-07-30T14:52:35;20.70;93.20
21895;DHT22;11112;51.270;7.224;2023-07-30T14:55:02;20.70;92.90
21895;DHT22;11112;51.270;7.224;2023-07-30T14:57:29;20.70;93.10
21895;DHT22;11112;51.270;7.224;2023-07-30T14:59:58;20.80;93.00
21895;DHT22;11112;51.270;7.224;2023-07-30T15:02:26;20.80;93.00
21895;DHT22;11112;51.270;7.224;2023-07-30T15:04:53;20.80;93.00
21895;DHT22;11112;51.270;7.224;2023-07-30T15:07:21;20.80;93.30
21895;DHT22;11112;51.270;7.224;2023-07-30T15:09:52;20.80;93.30
21895;DHT22;11112;51.270;7.224;2023-07-30T15:12:19;20.80;93.30
21895;DHT22;11112;51.270;7.224;2023-07-30T15:14:46;20.80;93.30
21895;DHT22;11112;51.270;7.224;2023-07-30T15:17:13;20.80;93.30
21895;DHT22;11112;51.270;7.224;2023-07-30T15:19:40;20.80;93.40
21895;DHT22;11112;51.270;7.224;2023-07-30T15:22:07;20.80;93.20
21895;DHT22;11112;51.270;7.224;2023-07-30T15:24:34;20.90;93.00
21895;DHT22;11112;51.270;7.224;2023-07-30T15:27:03;20.90;92.90
21895;DHT22;11112;51.270;7.224;2023-07-30T15:29:30;20.90;92.80
21895;DHT22;11112;51.270;7.224;2023-07-30T15:31:57;20.90;92.90
21895;DHT22;11112;51.270;7.224;2023-07-30T15:34:24;20.90;92.90
21895;DHT22;11112;51.270;7.224;2023-07-30T15:36:51;20.90;92.70